Terminal Aerodrome Forecast
Issued by NWS

Home | Current Version | Previous Version | Graphics & Text | Print | Product List | Glossary On
Versions: 1 2 3 4 5 6 7 8 9 10 11 12 13 14 15 16 17 18 19 20 21 22 23
046
FTUS43 KLSX 162037 AAA
TAFSUS
TAF AMD
KSUS 162037Z 1621/1718 13009KT 3SM -SHRA BR OVC005
      TEMPO 1621/1622 1SM -SHRA BR
     FM170400 21006KT 4SM BR VCSH OVC008
     FM170800 25007KT 6SM BR OVC025
     FM171200 27008KT 6SM BR BKN007
     FM171700 27008KT P6SM BKN012=

USA.gov is the U.S. government's official web portal to all federal, state and local government web resources and services.